sensor_id;sensor_type;location;lat;lon;timestamp;P1;durP1;ratioP1;P2;durP2;ratioP2
1577;SDS011;57623;53.608;10.004;2023-07-29T00:01:22;6.23;;;5.73;;
1577;SDS011;57623;53.608;10.004;2023-07-29T00:03:50;6.57;;;6.07;;
1577;SDS011;57623;53.608;10.004;2023-07-29T00:06:18;6.73;;;6.23;;
1577;SDS011;57623;53.608;10.004;2023-07-29T00:08:48;6.80;;;6.20;;
1577;SDS011;57623;53.608;10.004;2023-07-29T00:11:16;6.60;;;6.00;;
1577;SDS011;57623;53.608;10.004;2023-07-29T00:13:44;6.40;;;5.90;;
1577;SDS011;57623;53.608;10.004;2023-07-29T00:16:13;6.70;;;6.10;;
1577;SDS011;57623;53.608;10.004;2023-07-29T00:18:43;6.47;;;5.90;;
1577;SDS011;57623;53.608;10.004;2023-07-29T00:21:11;6.60;;;6.00;;
1577;SDS011;57623;53.608;10.004;2023-07-29T00:23:39;6.57;;;5.97;;
1577;SDS011;57623;53.608;10.004;2023-07-29T00:26:08;7.17;;;6.57;;
1577;SDS011;57623;53.608;10.004;2023-07-29T00:28:36;6.60;;;6.00;;
1577;SDS011;57623;53.608;10.004;2023-07-29T00:31:04;6.60;;;6.00;;
1577;SDS011;57623;53.608;10.004;2023-07-29T00:33:33;6.60;;;6.03;;
1577;SDS011;57623;53.608;10.004;2023-07-29T00:36:00;6.43;;;5.90;;
1577;SDS011;57623;53.608;10.004;2023-07-29T00:38:29;6.40;;;5.80;;
1577;SDS011;57623;53.608;10.004;2023-07-29T00:40:57;6.63;;;6.03;;
1577;SDS011;57623;53.608;10.004;2023-07-29T00:43:27;6.90;;;6.30;;
1577;SDS011;57623;53.608;10.004;2023-07-29T00:45:55;6.70;;;5.97;;
1577;SDS011;57623;53.608;10.004;2023-07-29T00:48:24;6.10;;;5.60;;
1577;SDS011;57623;53.608;10.004;2023-07-29T00:50:53;6.37;;;5.87;;
1577;SDS011;57623;53.608;10.004;2023-07-29T00:53:22;6.67;;;6.17;;
1577;SDS011;57623;53.608;10.004;2023-07-29T00:55:49;6.33;;;5.73;;
1577;SDS011;57623;53.608;10.004;2023-07-29T00:58:17;6.23;;;5.73;;
1577;SDS011;57623;53.608;10.004;2023-07-29T01:00:47;7.17;;;6.57;;
1577;SDS011;57623;53.608;10.004;2023-07-29T01:03:17;6.70;;;6.10;;
1577;SDS011;57623;53.608;10.004;2023-07-29T01:05:48;6.40;;;5.90;;
1577;SDS011;57623;53.608;10.004;2023-07-29T01:08:27;5.90;;;5.40;;
1577;SDS011;57623;53.608;10.004;2023-07-29T01:11:08;6.37;;;5.77;;
1577;SDS011;57623;53.608;10.004;2023-07-29T01:13:48;6.43;;;5.87;;
1577;SDS011;57623;53.608;10.004;2023-07-29T01:16:23;6.77;;;6.17;;
1577;SDS011;57623;53.608;10.004;2023-07-29T01:18:58;6.47;;;5.40;;
1577;SDS011;57623;53.608;10.004;2023-07-29T01:21:32;6.20;;;5.70;;
1577;SDS011;57623;53.608;10.004;2023-07-29T01:24:03;6.23;;;5.73;;
1577;SDS011;57623;53.608;10.004;2023-07-29T01:26:32;6.33;;;5.73;;
1577;SDS011;57623;53.608;10.004;2023-07-29T01:29:00;6.10;;;5.70;;
1577;SDS011;57623;53.608;10.004;2023-07-29T01:31:30;6.40;;;5.90;;
1577;SDS011;57623;53.608;10.004;2023-07-29T01:34:02;6.17;;;5.67;;
1577;SDS011;57623;53.608;10.004;2023-07-29T01:36:37;6.73;;;6.23;;
1577;SDS011;57623;53.608;10.004;2023-07-29T01:39:13;6.17;;;5.67;;
1577;SDS011;57623;53.608;10.004;2023-07-29T01:41:43;6.37;;;5.87;;
1577;SDS011;57623;53.608;10.004;2023-07-29T01:44:12;6.47;;;5.97;;
1577;SDS011;57623;53.608;10.004;2023-07-29T01:46:40;6.63;;;6.13;;
1577;SDS011;57623;53.608;10.004;2023-07-29T01:49:08;5.80;;;5.40;;
1577;SDS011;57623;53.608;10.004;2023-07-29T01:51:36;7.20;;;6.60;;
1577;SDS011;57623;53.608;10.004;2023-07-29T01:54:04;6.93;;;6.33;;
1577;SDS011;57623;53.608;10.004;2023-07-29T01:56:33;7.00;;;6.50;;
1577;SDS011;57623;53.608;10.004;2023-07-29T01:59:02;6.67;;;6.07;;
1577;SDS011;57623;53.608;10.004;2023-07-29T02:01:30;7.10;;;6.50;;
1577;SDS011;57623;53.608;10.004;2023-07-29T02:03:59;8.67;;;7.87;;
1577;SDS011;57623;53.608;10.004;2023-07-29T02:06:27;8.50;;;7.70;;
1577;SDS011;57623;53.608;10.004;2023-07-29T02:08:55;8.50;;;7.70;;
1577;SDS011;57623;53.608;10.004;2023-07-29T02:11:23;8.67;;;7.87;;
1577;SDS011;57623;53.608;10.004;2023-07-29T02:13:55;9.17;;;8.30;;
1577;SDS011;57623;53.608;10.004;2023-07-29T02:16:23;10.43;;;9.53;;
1577;SDS011;57623;53.608;10.004;2023-07-29T02:18:51;9.50;;;8.70;;
1577;SDS011;57623;53.608;10.004;2023-07-29T02:21:21;10.90;;;9.90;;
1577;SDS011;57623;53.608;10.004;2023-07-29T02:23:49;9.20;;;8.40;;
1577;SDS011;57623;53.608;10.004;2023-07-29T02:26:17;9.07;;;8.37;;
1577;SDS011;57623;53.608;10.004;2023-07-29T02:28:45;9.17;;;8.47;;
1577;SDS011;57623;53.608;10.004;2023-07-29T02:31:16;10.83;;;9.93;;
1577;SDS011;57623;53.608;10.004;2023-07-29T02:33:45;10.53;;;9.60;;
1577;SDS011;57623;53.608;10.004;2023-07-29T02:36:13;10.50;;;9.50;;
1577;SDS011;57623;53.608;10.004;2023-07-29T02:38:41;10.73;;;9.93;;
1577;SDS011;57623;53.608;10.004;2023-07-29T02:41:10;11.07;;;10.10;;
1577;SDS011;57623;53.608;10.004;2023-07-29T02:43:39;10.00;;;9.17;;
1577;SDS011;57623;53.608;10.004;2023-07-29T02:46:08;10.37;;;9.47;;
1577;SDS011;57623;53.608;10.004;2023-07-29T02:48:37;11.43;;;10.40;;
1577;SDS011;57623;53.608;10.004;2023-07-29T02:51:05;12.97;;;11.87;;
1577;SDS011;57623;53.608;10.004;2023-07-29T02:53:33;13.27;;;11.97;;
1577;SDS011;57623;53.608;10.004;2023-07-29T02:56:03;12.90;;;11.90;;
1577;SDS011;57623;53.608;10.004;2023-07-29T02:58:32;13.27;;;12.27;;
1577;SDS011;57623;53.608;10.004;2023-07-29T03:01:00;12.73;;;11.73;;
1577;SDS011;57623;53.608;10.004;2023-07-29T03:03:29;13.20;;;12.00;;
1577;SDS011;57623;53.608;10.004;2023-07-29T03:06:00;12.90;;;11.90;;
1577;SDS011;57623;53.608;10.004;2023-07-29T03:08:29;12.87;;;11.77;;
1577;SDS011;57623;53.608;10.004;2023-07-29T03:10:57;12.90;;;11.83;;
1577;SDS011;57623;53.608;10.004;2023-07-29T03:13:26;14.27;;;13.20;;
1577;SDS011;57623;53.608;10.004;2023-07-29T03:15:54;13.73;;;12.43;;
1577;SDS011;57623;53.608;10.004;2023-07-29T03:18:31;13.80;;;12.70;;
1577;SDS011;57623;53.608;10.004;2023-07-29T03:21:00;14.50;;;13.30;;
1577;SDS011;57623;53.608;10.004;2023-07-29T03:23:29;14.77;;;13.50;;
1577;SDS011;57623;53.608;10.004;2023-07-29T03:25:58;13.67;;;12.47;;
1577;SDS011;57623;53.608;10.004;2023-07-29T03:28:27;14.10;;;12.90;;
1577;SDS011;57623;53.608;10.004;2023-07-29T03:30:57;14.27;;;12.97;;
1577;SDS011;57623;53.608;10.004;2023-07-29T03:33:25;14.47;;;13.23;;
1577;SDS011;57623;53.608;10.004;2023-07-29T03:35:53;14.00;;;12.80;;
1577;SDS011;57623;53.608;10.004;2023-07-29T03:38:23;15.00;;;13.60;;
1577;SDS011;57623;53.608;10.004;2023-07-29T03:40:51;16.27;;;14.97;;
1577;SDS011;57623;53.608;10.004;2023-07-29T03:43:19;15.80;;;14.50;;
1577;SDS011;57623;53.608;10.004;2023-07-29T03:45:47;16.13;;;14.77;;
1577;SDS011;57623;53.608;10.004;2023-07-29T03:48:15;14.10;;;12.77;;
1577;SDS011;57623;53.608;10.004;2023-07-29T03:50:43;15.10;;;13.70;;
1577;SDS011;57623;53.608;10.004;2023-07-29T03:53:11;14.47;;;13.27;;
1577;SDS011;57623;53.608;10.004;2023-07-29T03:55:41;13.60;;;12.40;;
1577;SDS011;57623;53.608;10.004;2023-07-29T03:58:09;14.60;;;13.30;;
1577;SDS011;57623;53.608;10.004;2023-07-29T04:00:37;14.73;;;13.53;;
1577;SDS011;57623;53.608;10.004;2023-07-29T04:03:04;13.40;;;12.30;;
1577;SDS011;57623;53.608;10.004;2023-07-29T04:05:32;14.10;;;12.90;;
1577;SDS011;57623;53.608;10.004;2023-07-29T04:08:00;13.57;;;12.43;;
1577;SDS011;57623;53.608;10.004;2023-07-29T04:10:28;14.83;;;13.47;;
1577;SDS011;57623;53.608;10.004;2023-07-29T04:12:59;13.93;;;12.70;;
1577;SDS011;57623;53.608;10.004;2023-07-29T04:15:27;15.47;;;14.07;;
1577;SDS011;57623;53.608;10.004;2023-07-29T04:17:56;13.80;;;12.70;;
1577;SDS011;57623;53.608;10.004;2023-07-29T04:20:24;14.50;;;13.30;;
1577;SDS011;57623;53.608;10.004;2023-07-29T04:22:52;16.00;;;14.60;;
1577;SDS011;57623;53.608;10.004;2023-07-29T04:25:20;14.60;;;13.40;;
1577;SDS011;57623;53.608;10.004;2023-07-29T04:27:48;15.97;;;14.57;;
1577;SDS011;57623;53.608;10.004;2023-07-29T04:30:17;14.50;;;13.30;;
1577;SDS011;57623;53.608;10.004;2023-07-29T04:32:45;14.83;;;13.63;;
1577;SDS011;57623;53.608;10.004;2023-07-29T04:35:15;15.40;;;14.00;;
1577;SDS011;57623;53.608;10.004;2023-07-29T04:37:43;24.87;;;20.30;;
1577;SDS011;57623;53.608;10.004;2023-07-29T04:40:11;22.27;;;20.40;;
1577;SDS011;57623;53.608;10.004;2023-07-29T04:42:39;25.10;;;22.63;;
1577;SDS011;57623;53.608;10.004;2023-07-29T04:45:07;24.60;;;22.20;;
1577;SDS011;57623;53.608;10.004;2023-07-29T04:47:36;25.47;;;22.10;;
1577;SDS011;57623;53.608;10.004;2023-07-29T04:50:05;23.17;;;20.77;;
1577;SDS011;57623;53.608;10.004;2023-07-29T04:52:34;23.93;;;21.37;;
1577;SDS011;57623;53.608;10.004;2023-07-29T04:55:02;24.93;;;22.43;;
1577;SDS011;57623;53.608;10.004;2023-07-29T04:57:30;26.77;;;24.17;;
1577;SDS011;57623;53.608;10.004;2023-07-29T04:59:58;26.67;;;23.97;;
1577;SDS011;57623;53.608;10.004;2023-07-29T05:02:26;25.83;;;23.20;;
1577;SDS011;57623;53.608;10.004;2023-07-29T05:04:56;26.40;;;23.90;;
1577;SDS011;57623;53.608;10.004;2023-07-29T05:07:24;25.63;;;23.00;;
1577;SDS011;57623;53.608;10.004;2023-07-29T05:09:51;25.93;;;23.40;;
1577;SDS011;57623;53.608;10.004;2023-07-29T05:12:19;24.63;;;22.20;;
1577;SDS011;57623;53.608;10.004;2023-07-29T05:14:47;25.57;;;22.73;;
1577;SDS011;57623;53.608;10.004;2023-07-29T05:17:15;26.33;;;23.73;;
1577;SDS011;57623;53.608;10.004;2023-07-29T05:19:43;23.97;;;21.57;;
1577;SDS011;57623;53.608;10.004;2023-07-29T05:22:13;26.17;;;23.60;;
1577;SDS011;57623;53.608;10.004;2023-07-29T05:24:41;24.97;;;22.40;;
1577;SDS011;57623;53.608;10.004;2023-07-29T05:27:08;26.53;;;23.90;;
1577;SDS011;57623;53.608;10.004;2023-07-29T05:29:36;25.77;;;23.07;;
1577;SDS011;57623;53.608;10.004;2023-07-29T05:32:05;26.00;;;23.37;;
1577;SDS011;57623;53.608;10.004;2023-07-29T05:34:33;23.57;;;21.17;;
1577;SDS011;57623;53.608;10.004;2023-07-29T05:37:01;25.57;;;23.13;;
1577;SDS011;57623;53.608;10.004;2023-07-29T05:39:30;25.53;;;23.13;;
1577;SDS011;57623;53.608;10.004;2023-07-29T05:41:58;23.43;;;21.20;;
1577;SDS011;57623;53.608;10.004;2023-07-29T05:44:28;24.60;;;22.30;;
1577;SDS011;57623;53.608;10.004;2023-07-29T05:46:56;23.73;;;21.37;;
1577;SDS011;57623;53.608;10.004;2023-07-29T05:49:25;24.97;;;22.33;;
1577;SDS011;57623;53.608;10.004;2023-07-29T05:51:52;26.23;;;23.53;;
1577;SDS011;57623;53.608;10.004;2023-07-29T05:54:20;24.83;;;22.40;;
1577;SDS011;57623;53.608;10.004;2023-07-29T05:56:50;23.87;;;21.57;;
1577;SDS011;57623;53.608;10.004;2023-07-29T05:59:18;24.23;;;21.83;;
1577;SDS011;57623;53.608;10.004;2023-07-29T06:01:46;24.60;;;22.13;;
1577;SDS011;57623;53.608;10.004;2023-07-29T06:04:14;24.47;;;22.20;;
1577;SDS011;57623;53.608;10.004;2023-07-29T06:06:42;25.10;;;22.60;;
1577;SDS011;57623;53.608;10.004;2023-07-29T06:09:10;24.73;;;22.30;;
1577;SDS011;57623;53.608;10.004;2023-07-29T06:11:37;21.60;;;19.57;;
1577;SDS011;57623;53.608;10.004;2023-07-29T06:14:07;22.10;;;20.10;;
1577;SDS011;57623;53.608;10.004;2023-07-29T06:16:35;23.87;;;21.53;;
1577;SDS011;57623;53.608;10.004;2023-07-29T06:19:03;24.70;;;22.30;;
1577;SDS011;57623;53.608;10.004;2023-07-29T06:21:31;21.67;;;19.60;;
1577;SDS011;57623;53.608;10.004;2023-07-29T06:23:59;24.53;;;22.13;;
1577;SDS011;57623;53.608;10.004;2023-07-29T06:26:27;23.73;;;21.27;;
1577;SDS011;57623;53.608;10.004;2023-07-29T06:28:55;22.40;;;20.33;;
1577;SDS011;57623;53.608;10.004;2023-07-29T06:31:25;21.60;;;19.70;;
1577;SDS011;57623;53.608;10.004;2023-07-29T06:33:53;22.93;;;20.80;;
1577;SDS011;57623;53.608;10.004;2023-07-29T06:36:21;23.03;;;20.60;;
1577;SDS011;57623;53.608;10.004;2023-07-29T06:38:48;22.60;;;20.60;;
1577;SDS011;57623;53.608;10.004;2023-07-29T06:41:16;23.00;;;20.90;;
1577;SDS011;57623;53.608;10.004;2023-07-29T06:43:46;21.87;;;19.77;;
1577;SDS011;57623;53.608;10.004;2023-07-29T06:46:14;22.27;;;20.27;;
1577;SDS011;57623;53.608;10.004;2023-07-29T06:48:43;21.90;;;19.90;;
1577;SDS011;57623;53.608;10.004;2023-07-29T06:51:11;21.70;;;19.67;;
1577;SDS011;57623;53.608;10.004;2023-07-29T06:53:39;21.30;;;19.30;;
1577;SDS011;57623;53.608;10.004;2023-07-29T06:56:07;22.40;;;20.20;;
1577;SDS011;57623;53.608;10.004;2023-07-29T06:58:35;21.47;;;19.60;;
1577;SDS011;57623;53.608;10.004;2023-07-29T07:01:03;24.37;;;21.47;;
1577;SDS011;57623;53.608;10.004;2023-07-29T07:03:31;23.10;;;20.90;;
1577;SDS011;57623;53.608;10.004;2023-07-29T07:06:00;25.00;;;22.60;;
1577;SDS011;57623;53.608;10.004;2023-07-29T07:08:29;23.97;;;21.77;;
1577;SDS011;57623;53.608;10.004;2023-07-29T07:10:57;24.17;;;21.90;;
1577;SDS011;57623;53.608;10.004;2023-07-29T07:13:25;25.83;;;23.30;;
1577;SDS011;57623;53.608;10.004;2023-07-29T07:15:54;26.97;;;24.37;;
1577;SDS011;57623;53.608;10.004;2023-07-29T07:18:22;26.33;;;23.90;;
1577;SDS011;57623;53.608;10.004;2023-07-29T07:20:50;25.53;;;23.20;;
1577;SDS011;57623;53.608;10.004;2023-07-29T07:23:20;25.43;;;23.03;;
1577;SDS011;57623;53.608;10.004;2023-07-29T07:25:48;24.97;;;22.63;;
1577;SDS011;57623;53.608;10.004;2023-07-29T07:28:15;24.97;;;22.67;;
1577;SDS011;57623;53.608;10.004;2023-07-29T07:30:43;23.97;;;21.87;;
1577;SDS011;57623;53.608;10.004;2023-07-29T07:33:11;24.13;;;21.83;;
1577;SDS011;57623;53.608;10.004;2023-07-29T07:35:39;23.73;;;21.43;;
1577;SDS011;57623;53.608;10.004;2023-07-29T07:38:08;24.20;;;21.70;;
1577;SDS011;57623;53.608;10.004;2023-07-29T07:40:37;23.90;;;21.60;;
1577;SDS011;57623;53.608;10.004;2023-07-29T07:43:06;24.80;;;22.53;;
1577;SDS011;57623;53.608;10.004;2023-07-29T07:45:34;24.47;;;22.07;;
1577;SDS011;57623;53.608;10.004;2023-07-29T07:48:02;22.73;;;20.47;;
1577;SDS011;57623;53.608;10.004;2023-07-29T07:50:30;25.20;;;22.60;;
1577;SDS011;57623;53.608;10.004;2023-07-29T07:52:58;25.17;;;22.70;;
1577;SDS011;57623;53.608;10.004;2023-07-29T07:55:26;25.33;;;22.67;;
1577;SDS011;57623;53.608;10.004;2023-07-29T07:57:55;24.50;;;22.17;;
1577;SDS011;57623;53.608;10.004;2023-07-29T08:00:23;25.50;;;22.80;;
1577;SDS011;57623;53.608;10.004;2023-07-29T08:02:51;23.77;;;21.40;;
1577;SDS011;57623;53.608;10.004;2023-07-29T08:05:20;24.83;;;22.33;;
1577;SDS011;57623;53.608;10.004;2023-07-29T08:07:48;24.83;;;22.30;;
1577;SDS011;57623;53.608;10.004;2023-07-29T08:10:16;23.13;;;20.30;;
1577;SDS011;57623;53.608;10.004;2023-07-29T08:12:44;23.30;;;21.00;;
1577;SDS011;57623;53.608;10.004;2023-07-29T08:15:13;23.17;;;21.07;;
1577;SDS011;57623;53.608;10.004;2023-07-29T08:17:41;21.47;;;19.47;;
1577;SDS011;57623;53.608;10.004;2023-07-29T08:20:09;24.13;;;21.63;;
1577;SDS011;57623;53.608;10.004;2023-07-29T08:22:37;23.43;;;21.23;;
1577;SDS011;57623;53.608;10.004;2023-07-29T08:25:05;23.00;;;20.90;;
1577;SDS011;57623;53.608;10.004;2023-07-29T08:27:34;23.97;;;21.77;;
1577;SDS011;57623;53.608;10.004;2023-07-29T08:30:02;21.30;;;19.40;;
1577;SDS011;57623;53.608;10.004;2023-07-29T08:32:32;22.63;;;20.40;;
1577;SDS011;57623;53.608;10.004;2023-07-29T08:35:00;19.57;;;17.77;;
1577;SDS011;57623;53.608;10.004;2023-07-29T08:37:28;20.77;;;18.87;;
1577;SDS011;57623;53.608;10.004;2023-07-29T08:39:57;21.57;;;19.43;;
1577;SDS011;57623;53.608;10.004;2023-07-29T08:42:26;20.53;;;18.73;;
1577;SDS011;57623;53.608;10.004;2023-07-29T08:44:59;20.93;;;18.97;;
1577;SDS011;57623;53.608;10.004;2023-07-29T08:47:35;20.77;;;18.87;;
1577;SDS011;57623;53.608;10.004;2023-07-29T08:50:03;21.33;;;19.53;;
1577;SDS011;57623;53.608;10.004;2023-07-29T08:52:32;20.37;;;18.47;;
1577;SDS011;57623;53.608;10.004;2023-07-29T08:55:01;19.63;;;17.73;;
1577;SDS011;57623;53.608;10.004;2023-07-29T08:57:30;20.70;;;18.80;;
1577;SDS011;57623;53.608;10.004;2023-07-29T08:59:58;21.30;;;19.40;;
1577;SDS011;57623;53.608;10.004;2023-07-29T09:02:28;17.97;;;16.47;;
1577;SDS011;57623;53.608;10.004;2023-07-29T09:04:57;20.13;;;18.17;;
1577;SDS011;57623;53.608;10.004;2023-07-29T09:07:25;22.07;;;19.97;;
1577;SDS011;57623;53.608;10.004;2023-07-29T09:09:54;18.60;;;17.10;;
1577;SDS011;57623;53.608;10.004;2023-07-29T09:12:22;19.30;;;17.70;;
1577;SDS011;57623;53.608;10.004;2023-07-29T09:14:51;19.30;;;17.60;;
1577;SDS011;57623;53.608;10.004;2023-07-29T09:17:19;19.60;;;17.90;;
1577;SDS011;57623;53.608;10.004;2023-07-29T09:19:48;19.63;;;17.93;;
1577;SDS011;57623;53.608;10.004;2023-07-29T09:22:20;19.97;;;18.17;;
1577;SDS011;57623;53.608;10.004;2023-07-29T09:24:48;20.30;;;18.40;;
1577;SDS011;57623;53.608;10.004;2023-07-29T09:27:23;18.87;;;17.10;;
1577;SDS011;57623;53.608;10.004;2023-07-29T09:29:51;17.40;;;15.70;;
1577;SDS011;57623;53.608;10.004;2023-07-29T09:32:20;18.10;;;16.50;;
1577;SDS011;57623;53.608;10.004;2023-07-29T09:34:48;17.33;;;15.73;;
1577;SDS011;57623;53.608;10.004;2023-07-29T09:37:17;15.97;;;14.57;;
1577;SDS011;57623;53.608;10.004;2023-07-29T09:39:48;17.53;;;16.03;;
1577;SDS011;57623;53.608;10.004;2023-07-29T09:42:17;16.70;;;15.30;;
1577;SDS011;57623;53.608;10.004;2023-07-29T09:44:47;17.00;;;15.43;;
1577;SDS011;57623;53.608;10.004;2023-07-29T09:47:20;16.27;;;14.80;;
1577;SDS011;57623;53.608;10.004;2023-07-29T09:49:48;16.83;;;15.33;;
1577;SDS011;57623;53.608;10.004;2023-07-29T09:52:17;15.50;;;14.20;;
1577;SDS011;57623;53.608;10.004;2023-07-29T09:54:47;16.40;;;14.87;;
1577;SDS011;57623;53.608;10.004;2023-07-29T09:57:16;15.87;;;14.33;;
1577;SDS011;57623;53.608;10.004;2023-07-29T09:59:53;16.10;;;14.80;;
1577;SDS011;57623;53.608;10.004;2023-07-29T10:02:21;14.60;;;13.50;;
1577;SDS011;57623;53.608;10.004;2023-07-29T10:04:51;12.53;;;11.53;;
1577;SDS011;57623;53.608;10.004;2023-07-29T10:07:20;11.40;;;10.50;;
1577;SDS011;57623;53.608;10.004;2023-07-29T10:09:50;10.50;;;9.70;;
1577;SDS011;57623;53.608;10.004;2023-07-29T10:12:20;9.40;;;8.70;;
1577;SDS011;57623;53.608;10.004;2023-07-29T10:14:49;8.80;;;8.10;;
1577;SDS011;57623;53.608;10.004;2023-07-29T10:17:17;10.87;;;9.97;;
1577;SDS011;57623;53.608;10.004;2023-07-29T10:19:47;9.60;;;8.90;;
1577;SDS011;57623;53.608;10.004;2023-07-29T10:22:16;9.10;;;8.47;;
1577;SDS011;57623;53.608;10.004;2023-07-29T10:24:47;9.67;;;8.73;;
1577;SDS011;57623;53.608;10.004;2023-07-29T10:27:18;8.60;;;7.90;;
1577;SDS011;57623;53.608;10.004;2023-07-29T10:29:48;9.00;;;8.30;;
1577;SDS011;57623;53.608;10.004;2023-07-29T10:32:17;8.87;;;8.17;;
1577;SDS011;57623;53.608;10.004;2023-07-29T10:34:50;9.10;;;7.90;;
1577;SDS011;57623;53.608;10.004;2023-07-29T10:37:18;8.07;;;7.47;;
1577;SDS011;57623;53.608;10.004;2023-07-29T10:39:53;8.30;;;7.70;;
1577;SDS011;57623;53.608;10.004;2023-07-29T10:42:22;8.20;;;7.60;;
1577;SDS011;57623;53.608;10.004;2023-07-29T10:44:50;8.60;;;7.90;;
1577;SDS011;57623;53.608;10.004;2023-07-29T10:47:23;8.37;;;7.73;;
1577;SDS011;57623;53.608;10.004;2023-07-29T10:49:54;7.20;;;6.70;;
1577;SDS011;57623;53.608;10.004;2023-07-29T10:52:39;7.17;;;6.67;;
1577;SDS011;57623;53.608;10.004;2023-07-29T10:55:28;7.30;;;6.70;;
1577;SDS011;57623;53.608;10.004;2023-07-29T10:58:06;7.33;;;6.83;;
1577;SDS011;57623;53.608;10.004;2023-07-29T11:00:36;7.10;;;6.60;;
1577;SDS011;57623;53.608;10.004;2023-07-29T11:03:05;7.67;;;7.07;;
1577;SDS011;57623;53.608;10.004;2023-07-29T11:05:47;7.17;;;6.60;;
1577;SDS011;57623;53.608;10.004;2023-07-29T11:08:20;7.30;;;6.60;;
1577;SDS011;57623;53.608;10.004;2023-07-29T11:10:58;8.23;;;7.53;;
1577;SDS011;57623;53.608;10.004;2023-07-29T11:13:34;6.93;;;6.43;;
1577;SDS011;57623;53.608;10.004;2023-07-29T11:16:03;7.20;;;6.47;;
1577;SDS011;57623;53.608;10.004;2023-07-29T11:18:33;7.17;;;6.63;;
1577;SDS011;57623;53.608;10.004;2023-07-29T11:21:03;6.40;;;5.80;;
1577;SDS011;57623;53.608;10.004;2023-07-29T11:23:32;15.40;;;8.40;;
1577;SDS011;57623;53.608;10.004;2023-07-29T11:26:02;26.63;;;10.50;;
1577;SDS011;57623;53.608;10.004;2023-07-29T11:28:37;17.33;;;8.73;;
1577;SDS011;57623;53.608;10.004;2023-07-29T11:31:05;9.73;;;6.90;;
1577;SDS011;57623;53.608;10.004;2023-07-29T11:33:33;16.10;;;8.80;;
1577;SDS011;57623;53.608;10.004;2023-07-29T11:36:01;10.47;;;6.00;;
1577;SDS011;57623;53.608;10.004;2023-07-29T11:38:30;6.10;;;5.13;;
1577;SDS011;57623;53.608;10.004;2023-07-29T11:41:04;10.23;;;7.10;;
1577;SDS011;57623;53.608;10.004;2023-07-29T11:43:34;5.07;;;4.57;;
1577;SDS011;57623;53.608;10.004;2023-07-29T11:46:03;4.50;;;4.10;;
1577;SDS011;57623;53.608;10.004;2023-07-29T11:48:32;5.47;;;3.90;;
1577;SDS011;57623;53.608;10.004;2023-07-29T11:51:00;4.77;;;4.37;;
1577;SDS011;57623;53.608;10.004;2023-07-29T11:53:30;4.80;;;4.33;;
1577;SDS011;57623;53.608;10.004;2023-07-29T11:55:58;4.60;;;4.20;;
1577;SDS011;57623;53.608;10.004;2023-07-29T11:58:28;4.60;;;4.10;;
1577;SDS011;57623;53.608;10.004;2023-07-29T12:00:56;4.70;;;4.03;;
1577;SDS011;57623;53.608;10.004;2023-07-29T12:03:25;4.40;;;3.80;;
1577;SDS011;57623;53.608;10.004;2023-07-29T12:05:53;4.50;;;4.20;;
1577;SDS011;57623;53.608;10.004;2023-07-29T12:08:22;4.10;;;3.80;;
1577;SDS011;57623;53.608;10.004;2023-07-29T12:10:50;4.63;;;4.00;;
1577;SDS011;57623;53.608;10.004;2023-07-29T12:13:18;3.60;;;3.30;;
1577;SDS011;57623;53.608;10.004;2023-07-29T12:15:52;3.77;;;3.43;;
1577;SDS011;57623;53.608;10.004;2023-07-29T12:18:29;3.70;;;3.40;;
1577;SDS011;57623;53.608;10.004;2023-07-29T12:20:58;4.03;;;3.00;;
1577;SDS011;57623;53.608;10.004;2023-07-29T12:23:26;3.50;;;3.27;;
1577;SDS011;57623;53.608;10.004;2023-07-29T12:25:56;2.80;;;2.70;;
1577;SDS011;57623;53.608;10.004;2023-07-29T12:28:25;3.07;;;2.90;;
1577;SDS011;57623;53.608;10.004;2023-07-29T12:30:55;3.20;;;3.00;;
1577;SDS011;57623;53.608;10.004;2023-07-29T12:33:29;2.77;;;2.57;;
1577;SDS011;57623;53.608;10.004;2023-07-29T12:35:58;3.00;;;2.80;;
1577;SDS011;57623;53.608;10.004;2023-07-29T12:38:26;2.97;;;2.77;;
1577;SDS011;57623;53.608;10.004;2023-07-29T12:40:54;3.13;;;2.93;;
1577;SDS011;57623;53.608;10.004;2023-07-29T12:43:23;2.77;;;2.57;;
1577;SDS011;57623;53.608;10.004;2023-07-29T12:45:52;3.33;;;3.10;;
1577;SDS011;57623;53.608;10.004;2023-07-29T12:48:21;3.20;;;2.83;;
1577;SDS011;57623;53.608;10.004;2023-07-29T12:50:49;2.40;;;2.30;;
1577;SDS011;57623;53.608;10.004;2023-07-29T12:53:18;2.90;;;2.70;;
1577;SDS011;57623;53.608;10.004;2023-07-29T12:55:46;2.43;;;2.33;;
1577;SDS011;57623;53.608;10.004;2023-07-29T12:58:14;2.43;;;2.23;;
1577;SDS011;57623;53.608;10.004;2023-07-29T13:00:42;2.40;;;2.30;;
1577;SDS011;57623;53.608;10.004;2023-07-29T13:03:10;2.20;;;2.10;;
1577;SDS011;57623;53.608;10.004;2023-07-29T13:05:39;2.53;;;2.33;;
1577;SDS011;57623;53.608;10.004;2023-07-29T13:08:07;2.30;;;2.20;;
1577;SDS011;57623;53.608;10.004;2023-07-29T13:10:36;2.77;;;2.53;;
1577;SDS011;57623;53.608;10.004;2023-07-29T13:13:04;2.87;;;2.67;;
1577;SDS011;57623;53.608;10.004;2023-07-29T13:15:32;2.50;;;2.30;;
1577;SDS011;57623;53.608;10.004;2023-07-29T13:18:00;4.67;;;2.60;;
1577;SDS011;57623;53.608;10.004;2023-07-29T13:20:28;2.80;;;2.10;;
1577;SDS011;57623;53.608;10.004;2023-07-29T13:22:58;2.40;;;2.20;;
1577;SDS011;57623;53.608;10.004;2023-07-29T13:25:26;2.47;;;2.27;;
1577;SDS011;57623;53.608;10.004;2023-07-29T13:27:54;2.20;;;2.10;;
1577;SDS011;57623;53.608;10.004;2023-07-29T13:30:22;2.60;;;2.40;;
1577;SDS011;57623;53.608;10.004;2023-07-29T13:32:50;2.63;;;2.43;;
1577;SDS011;57623;53.608;10.004;2023-07-29T13:35:18;2.27;;;2.17;;
1577;SDS011;57623;53.608;10.004;2023-07-29T13:37:46;2.80;;;2.60;;
1577;SDS011;57623;53.608;10.004;2023-07-29T13:40:15;2.60;;;2.50;;
1577;SDS011;57623;53.608;10.004;2023-07-29T13:42:43;2.03;;;1.93;;
1577;SDS011;57623;53.608;10.004;2023-07-29T13:45:11;3.03;;;2.60;;
1577;SDS011;57623;53.608;10.004;2023-07-29T13:47:39;2.43;;;2.23;;
1577;SDS011;57623;53.608;10.004;2023-07-29T13:50:07;2.67;;;2.47;;
1577;SDS011;57623;53.608;10.004;2023-07-29T13:52:36;2.57;;;2.37;;
1577;SDS011;57623;53.608;10.004;2023-07-29T13:55:04;2.30;;;2.10;;
1577;SDS011;57623;53.608;10.004;2023-07-29T13:57:34;2.73;;;2.53;;
1577;SDS011;57623;53.608;10.004;2023-07-29T14:00:02;2.70;;;2.50;;
1577;SDS011;57623;53.608;10.004;2023-07-29T14:02:31;2.43;;;2.33;;
1577;SDS011;57623;53.608;10.004;2023-07-29T14:04:59;2.23;;;2.07;;
1577;SDS011;57623;53.608;10.004;2023-07-29T14:07:27;2.70;;;2.50;;
1577;SDS011;57623;53.608;10.004;2023-07-29T14:09:55;2.90;;;2.70;;
1577;SDS011;57623;53.608;10.004;2023-07-29T14:12:27;2.70;;;2.53;;
1577;SDS011;57623;53.608;10.004;2023-07-29T14:14:56;2.50;;;2.30;;
1577;SDS011;57623;53.608;10.004;2023-07-29T14:17:24;2.50;;;2.30;;
1577;SDS011;57623;53.608;10.004;2023-07-29T14:19:52;3.10;;;2.90;;
1577;SDS011;57623;53.608;10.004;2023-07-29T14:22:20;2.63;;;2.43;;
1577;SDS011;57623;53.608;10.004;2023-07-29T14:24:48;3.20;;;2.20;;
1577;SDS011;57623;53.608;10.004;2023-07-29T14:27:16;2.50;;;2.30;;
1577;SDS011;57623;53.608;10.004;2023-07-29T14:29:44;2.63;;;2.43;;
1577;SDS011;57623;53.608;10.004;2023-07-29T14:32:13;2.43;;;2.23;;
1577;SDS011;57623;53.608;10.004;2023-07-29T14:34:41;2.60;;;2.40;;
1577;SDS011;57623;53.608;10.004;2023-07-29T14:37:09;2.77;;;2.57;;
1577;SDS011;57623;53.608;10.004;2023-07-29T14:39:37;2.57;;;2.47;;
1577;SDS011;57623;53.608;10.004;2023-07-29T14:42:05;2.70;;;2.20;;
1577;SDS011;57623;53.608;10.004;2023-07-29T14:44:34;2.70;;;2.50;;